Nearby METAR Reports

 

PAEN - Kenai, Alaska, USA
Distance from station: ESE 2mi, 4km
Updated: Mon, 19-Apr-2021 11:53pm AKDT
Clear
Clear
 Wind from NE
Wind: NE 5 mph , 7 km/h
Temperature: 43°F , 6°C
Wind Chill: 40°F , 4°C
Dew Point: 34°F , 1°C
Humidity: 71%
Barometer: 30.25 inHg , 1024.4 hPa
Clouds: Clear
Visibility: 10 miles , 16 km
2021/04/20 07:53 PAEN 200753Z AUTO 04004KT 10SM CLR 06/01 A3025 RMK AO2 SLP247 T00560006 TSNO
PASX - Soldotna, Alaska, USA
Distance from station: SE 12mi, 19km
Updated: Mon, 19-Apr-2021 11:56pm AKDT
Clear
Clear
 Wind from varies
Wind: varies 3 mph , 6 km/h
Temperature: 45°F , 7°C
Dew Point: 36°F , 2°C
Humidity: 71%
Barometer: 30.28 inHg , 1025.4 hPa
Clouds: Clear
Visibility: 10 miles , 16 km
2021/04/20 07:56 PASX 200756Z AUTO VRB03KT 10SM CLR 07/02 A3028 RMK AO2 SLP265 T00670017
 
PANC - Anchorage Intl, Alaska, USA
Distance from station: NE 59mi, 96km
Updated: Mon, 19-Apr-2021 11:53pm AKDT
Mostly cloudy
Mostly cloudy
 Wind from SSE
Wind: SSE 16 mph , 26 km/h, Gust: 29 mph , 46 km/h
Temperature: 48°F , 9°C
Wind Chill: 42°F , 6°C
Dew Point: 36°F , 2°C
Humidity: 62%
Barometer: 30.24 inHg , 1024 hPa
Clouds: Mostly cloudy
Visibility: 10 miles , 16 km
Cloud details: Few Clouds 8500 ft
Few Clouds 14000 ft
Mostly cloudy 25000 ft
2021/04/20 07:53 PANC 200753Z 16014G25KT 10SM FEW085 FEW140 BKN250 09/02 A3024 RMK AO2 SLP241 T00890017 VISNO N $
PALH - Anchorage/Lake H, Alaska, USA
Distance from station: NE 61mi, 99km
Updated: Mon, 19-Apr-2021 11:53pm AKDT
Clear
Clear
 Wind from SE
Wind: SE 6 mph , 9 km/h
Temperature: 43°F , 6°C
Wind Chill: 39°F , 4°C
Dew Point: 36°F , 2°C
Humidity: 76%
Barometer: 30.25 inHg , 1024.4 hPa
Clouds: Clear
Visibility: 10 miles , 16 km
2021/04/20 07:53 PALH 200753Z 14005KT 10SM CLR 06/02 A3025 RMK AO2 SLP243 T00560017
 
PAHO - Homer, Alaska, USA
Distance from station: S 66mi, 106km
Updated: Mon, 19-Apr-2021 11:53pm AKDT
Overcast
Overcast
 Wind from calm
Wind: Calm
Temperature: 46°F , 8°C
Dew Point: 36°F , 2°C
Humidity: 66%
Barometer: 30.26 inHg , 1024.7 hPa
Clouds: Overcast
Visibility: 10 miles , 16 km
Cloud details: Overcast 5500 ft
2021/04/20 07:53 PAHO 200753Z AUTO 00000KT 10SM OVC055 08/02 A3026 RMK AO2 SLP246 T00830022 TSNO
PAMR - Anchorage/Merril, Alaska, USA
Distance from station: NE 66mi, 106km
Updated: Mon, 19-Apr-2021 11:53pm AKDT
Mostly cloudy
Mostly cloudy
 Wind from calm
Wind: Calm
Temperature: 45°F , 7°C
Dew Point: 30°F , -1°C
Humidity: 57%
Barometer: 30.24 inHg , 1024 hPa
Clouds: Mostly cloudy
Visibility: 10 miles , 16 km
Cloud details: Few Clouds 8000 ft
Mostly cloudy 25000 ft
2021/04/20 07:53 PAMR 200753Z 00000KT 10SM FEW080 BKN250 07/M01 A3024 RMK AO2 SLP241 T00671006 $
 
PAED - Elmendorf Afb, Alaska, USA
Distance from station: NE 69mi, 110km
Updated: Mon, 19-Apr-2021 11:56pm AKDT
Few Clouds
Few Clouds
 Wind from calm
Wind: Calm
Temperature: 43°F , 6°C
Dew Point: 34°F , 1°C
Humidity: 71%
Barometer: 30.24 inHg , 1024 hPa
Clouds: Few Clouds
Visibility: 10 miles , 16 km
Cloud details: Few Clouds 8000 ft
2021/04/20 07:56 PAED 200756Z 00000KT 10SM FEW080 06/01 A3024 RMK AO2A SLP237 T00630008 $
PAWD - Seward, Alaska, USA
Distance from station: ESE 71mi, 115km
Updated: Mon, 19-Apr-2021 11:53pm AKDT
Overcast
Overcast
 Wind from S
Wind: S 14 mph , 22 km/h
Temperature: 41°F , 5°C
Wind Chill: 33°F , 1°C
Dew Point: 39°F , 4°C
Humidity: 93%
Barometer: 30.31 inHg , 1026.4 hPa
Clouds: Overcast
Visibility: 10 miles , 16 km
Cloud details: Mostly cloudy 1500 ft
Overcast 2000 ft
2021/04/20 07:53 PAWD 200753Z AUTO 17012KT 10SM BKN015 OVC020 05/04 A3031 RMK AO2 SLP264 T00500039 TSNO $
 
PASC - Deadhorse, Alaska, USA
Distance from station: ENE 670mi, 1078km
Updated: Mon, 19-Apr-2021 11:53pm AKDT
Mist, Overcast
Mist, Overcast
 Wind from W
Wind: W 25 mph , 41 km/h
Temperature: 21°F , -6°C
Wind Chill: 4°F , -16°C
Dew Point: 18°F , -8°C
Humidity: 86%
Barometer: 30.46 inHg , 1031.5 hPa
Summary: Mist
Clouds: Overcast
Visibility: 4 miles , 6 km
Cloud details: Overcast 1200 ft
2021/04/20 07:53 PASC 200753Z 27022KT 4SM BR OVC012 M06/M08 A3046 RMK AO2 PK WND 27026/0750 SLP317 T10611083
PAAD - Point Thomson, Alaska, USA
Distance from station: ENE 680mi, 1094km
Updated: Tue, 20-Apr-2021 12:15am AKDT
Overcast
Overcast
 Wind from W
Wind: W 24 mph , 39 km/h
Temperature: 21°F , -6°C
Wind Chill: 4°F , -16°C
Dew Point: 19°F , -7°C
Humidity: 93%
Barometer: 30.44 inHg , 1030.8 hPa
Clouds: Overcast
Visibility: 4 miles , 6 km
Cloud details: Overcast 700 ft
2021/04/20 08:15 PAAD 200815Z AUTO 27021KT 4SM UP OVC007 M06/M07 A3044 RMK AO2 T10651073


kenaipeople.com website

Dans Automotive

Lower Peninsula Power Sports

Freddies RoadHouse

Alaska Weather Net